Time;durP1;ratioP1;P1;durP2;ratioP2;P2;SDS_P1;SDS_P2;PMS_P1;PMS_P2;Temp;Humidity;BMP_temperature;BMP_pressure;BME280_temperature;BME280_humidity;BME280_pressure;Samples;Min_cycle;Max_cycle;Signal;HPM_P1;HPM_P2
2021/08/14 00:01:50;;;;;;;17.47;6.47;;;15.60;94.20;;;;;;5053081;28;20159;-66
2021/08/14 00:04:16;;;;;;;19.07;6.13;;;15.50;94.20;;;;;;5053552;28;20049;-66
2021/08/14 00:06:42;;;;;;;20.03;6.70;;;15.60;94.30;;;;;;5052300;28;20432;-66
2021/08/14 00:09:07;;;;;;;19.53;7.97;;;15.60;94.30;;;;;;5053176;28;20049;-66
2021/08/14 00:11:33;;;;;;;20.50;7.47;;;15.50;94.30;;;;;;5053256;28;20351;-67
2021/08/14 00:13:58;;;;;;;15.07;6.33;;;15.50;94.30;;;;;;5052091;28;20053;-67
2021/08/14 00:16:24;;;;;;;24.10;6.80;;;15.50;94.30;;;;;;5053455;28;20048;-66
2021/08/14 00:18:50;;;;;;;18.77;7.00;;;15.50;94.30;;;;;;5052697;28;20053;-66
2021/08/14 00:21:16;;;;;;;17.23;6.87;;;15.50;94.30;;;;;;5052954;28;20434;-67
2021/08/14 00:23:42;;;;;;;27.47;9.40;;;15.50;94.30;;;;;;5052713;28;20051;-66
2021/08/14 00:26:08;;;;;;;17.03;6.90;;;15.50;94.30;;;;;;5051996;28;20056;-67
2021/08/14 00:28:33;;;;;;;19.30;7.37;;;15.50;94.30;;;;;;5053008;28;20052;-66
2021/08/14 00:30:59;;;;;;;15.87;7.33;;;15.50;94.20;;;;;;5052696;28;20060;-66
2021/08/14 00:33:25;;;;;;;16.50;7.60;;;15.50;94.20;;;;;;5052295;28;20053;-66
2021/08/14 00:35:51;;;;;;;25.13;7.80;;;15.50;94.30;;;;;;5052524;28;20041;-66
2021/08/14 00:38:16;;;;;;;19.20;6.93;;;15.40;94.30;;;;;;5053358;28;20076;-66
2021/08/14 00:40:42;;;;;;;13.40;6.67;;;15.40;94.20;;;;;;5051823;28;20438;-67
2021/08/14 00:43:08;;;;;;;14.77;6.90;;;15.40;94.70;;;;;;5052903;28;20168;-66
2021/08/14 00:45:40;;;;;;;19.20;7.47;;;15.40;94.30;;;;;;5052615;28;20446;-66
2021/08/14 00:48:08;;;;;;;18.87;7.93;;;15.40;94.30;;;;;;5052233;28;20134;-66
2021/08/14 00:50:33;;;;;;;17.20;6.97;;;15.40;94.30;;;;;;5052585;28;20094;-66
2021/08/14 00:52:59;;;;;;;19.93;7.47;;;15.30;94.30;;;;;;5052275;28;20052;-66
2021/08/14 00:55:25;;;;;;;17.83;7.00;;;15.30;94.30;;;;;;5051660;28;20416;-66
2021/08/14 00:57:50;;;;;;;19.73;7.00;;;15.40;94.40;;;;;;5052101;28;20482;-66
2021/08/14 01:00:16;;;;;;;18.10;7.53;;;15.40;94.40;;;;;;5052525;28;20082;-66
2021/08/14 01:02:42;;;;;;;16.90;8.10;;;15.40;94.30;;;;;;5051297;28;20477;-66
2021/08/14 01:05:09;;;;;;;25.07;7.53;;;15.40;94.30;;;;;;5052365;28;20426;-66
2021/08/14 01:07:34;;;;;;;16.90;7.27;;;15.40;94.20;;;;;;5052143;28;20052;-66
2021/08/14 01:10:00;;;;;;;18.03;6.83;;;15.50;94.20;;;;;;5051402;28;20045;-66
2021/08/14 01:12:26;;;;;;;15.93;6.97;;;15.50;94.30;;;;;;5052146;28;20051;-66
2021/08/14 01:14:52;;;;;;;18.30;7.20;;;15.50;94.20;;;;;;5051962;28;20055;-66
2021/08/14 01:17:18;;;;;;;22.10;7.30;;;15.50;94.20;;;;;;5051438;28;20049;-66
2021/08/14 01:19:45;;;;;;;17.87;7.23;;;15.40;94.30;;;;;;5051847;28;20045;-66
2021/08/14 01:22:12;;;;;;;18.73;6.97;;;15.40;94.30;;;;;;5051742;28;20040;-66
2021/08/14 01:24:38;;;;;;;14.60;6.53;;;15.40;94.30;;;;;;5051971;28;20441;-66
2021/08/14 01:27:05;;;;;;;21.87;7.83;;;15.40;94.30;;;;;;5051680;28;20045;-67
2021/08/14 01:29:32;;;;;;;20.47;6.83;;;15.40;94.30;;;;;;5051382;28;20044;-66
2021/08/14 01:31:57;;;;;;;16.63;7.40;;;15.50;94.30;;;;;;5051763;28;20045;-67
2021/08/14 01:34:23;;;;;;;19.13;7.90;;;15.50;94.30;;;;;;5052135;28;20390;-66
2021/08/14 01:36:50;;;;;;;23.27;6.93;;;15.50;94.30;;;;;;5051239;28;20044;-67
2021/08/14 01:39:16;;;;;;;20.17;7.47;;;15.50;94.30;;;;;;5051811;28;20049;-66
2021/08/14 01:41:59;;;;;;;17.50;7.00;;;15.50;94.30;;;;;;5051384;28;20051;-66
2021/08/14 01:44:25;;;;;;;17.97;7.30;;;15.50;94.30;;;;;;5051056;28;20095;-67
2021/08/14 01:46:51;;;;;;;17.57;7.10;;;15.50;94.30;;;;;;5050894;28;20071;-66
2021/08/14 01:49:17;;;;;;;20.67;7.60;;;15.50;94.30;;;;;;5051539;28;20494;-66
2021/08/14 01:51:43;;;;;;;19.20;7.33;;;15.50;94.30;;;;;;5050480;28;20041;-66
2021/08/14 01:54:09;;;;;;;18.57;7.73;;;15.50;94.30;;;;;;5051487;28;20070;-66
2021/08/14 01:56:35;;;;;;;17.10;7.93;;;15.50;94.30;;;;;;5051596;28;20110;-66
2021/08/14 01:59:01;;;;;;;18.30;6.90;;;15.60;94.30;;;;;;5050501;28;20386;-66
2021/08/14 02:01:28;;;;;;;21.57;7.03;;;15.50;94.30;;;;;;5051440;28;20048;-66
2021/08/14 02:03:53;;;;;;;14.63;6.73;;;15.60;94.30;;;;;;5051066;28;20494;-66
2021/08/14 02:06:21;;;;;;;17.13;6.97;;;15.50;94.30;;;;;;5050547;28;20110;-66
2021/08/14 02:08:47;;;;;;;20.90;7.27;;;15.50;94.30;;;;;;5051114;28;20111;-66
2021/08/14 02:11:19;;;;;;;17.20;6.97;;;15.50;94.30;;;;;;5051514;28;20045;-66
2021/08/14 02:13:46;;;;;;;16.33;7.05;;;15.50;94.30;;;;;;5050506;28;20049;-66
2021/08/14 02:16:12;;;;;;;22.10;8.33;;;15.60;94.70;;;;;;5051296;28;20045;-66
2021/08/14 02:18:38;;;;;;;20.63;6.50;;;15.60;94.30;;;;;;5050300;28;20144;-66
2021/08/14 02:21:04;;;;;;;14.73;7.40;;;15.60;94.30;;;;;;5051390;28;20136;-66
2021/08/14 02:23:31;;;;;;;17.20;7.27;;;15.60;94.20;;;;;;5051233;28;20577;-66
2021/08/14 02:25:57;;;;;;;19.17;7.60;;;15.60;94.20;;;;;;5050089;28;20473;-66
2021/08/14 02:28:23;;;;;;;18.93;7.37;;;15.60;94.30;;;;;;5051323;28;20056;-66
2021/08/14 02:30:49;;;;;;;22.00;6.93;;;15.60;94.30;;;;;;5050942;28;20052;-66
2021/08/14 02:33:15;;;;;;;18.10;7.30;;;15.60;94.30;;;;;;5050624;28;20053;-66
2021/08/14 02:35:41;;;;;;;22.33;8.10;;;15.60;94.30;;;;;;5050830;28;20053;-66
2021/08/14 02:38:07;;;;;;;19.07;7.67;;;15.60;94.30;;;;;;5051209;28;20367;-66
2021/08/14 02:40:34;;;;;;;18.00;6.90;;;15.60;94.30;;;;;;5050267;28;20048;-66
2021/08/14 02:43:00;;;;;;;23.60;7.53;;;15.60;94.30;;;;;;5051282;28;20102;-67
2021/08/14 02:45:26;;;;;;;20.00;7.33;;;15.60;94.30;;;;;;5051204;28;20076;-66
2021/08/14 02:47:51;;;;;;;20.03;7.57;;;15.60;94.30;;;;;;5050249;28;20458;-66
2021/08/14 02:50:17;;;;;;;14.80;7.57;;;15.60;94.30;;;;;;5051224;28;20444;-66
2021/08/14 02:52:43;;;;;;;16.67;6.97;;;15.60;94.30;;;;;;5051011;28;20053;-66
2021/08/14 02:55:09;;;;;;;16.93;8.20;;;15.60;94.40;;;;;;5050320;28;20045;-65
2021/08/14 02:57:35;;;;;;;19.20;8.23;;;15.60;94.40;;;;;;5051153;28;20057;-66
2021/08/14 03:00:01;;;;;;;20.60;7.30;;;15.60;94.40;;;;;;5052805;28;20148;-66
2021/08/14 03:02:27;;;;;;;24.67;8.63;;;15.70;94.40;;;;;;5054290;28;20057;-66
2021/08/14 03:04:52;;;;;;;23.73;8.87;;;15.60;94.40;;;;;;5054418;28;20065;-66
2021/08/14 03:07:18;;;;;;;23.17;8.50;;;15.60;94.50;;;;;;5054582;28;20125;-66
2021/08/14 03:09:43;;;;;;;23.33;8.10;;;15.60;94.50;;;;;;5053776;28;20049;-66
2021/08/14 03:12:09;;;;;;;21.23;8.40;;;15.60;94.50;;;;;;5054730;28;20136;-66
2021/08/14 03:14:38;;;;;;;22.27;7.50;;;15.60;94.60;;;;;;5054785;28;20066;-66
2021/08/14 03:17:04;;;;;;;25.93;8.83;;;15.60;94.60;;;;;;5053233;28;20081;-66
2021/08/14 03:19:31;;;;;;;21.33;8.70;;;15.60;94.70;;;;;;5054233;28;20045;-66
2021/08/14 03:21:56;;;;;;;20.60;7.93;;;15.50;94.70;;;;;;5053611;28;20056;-66
2021/08/14 03:24:23;;;;;;;18.10;8.20;;;15.50;94.70;;;;;;5054333;28;20041;-66
2021/08/14 03:26:49;;;;;;;20.13;8.67;;;15.50;94.80;;;;;;5054065;28;20114;-67
2021/08/14 03:29:15;;;;;;;27.73;9.53;;;15.50;94.80;;;;;;5053442;28;20453;-66
2021/08/14 03:31:41;;;;;;;16.30;8.33;;;15.50;94.80;;;;;;5053946;28;20056;-66
2021/08/14 03:34:06;;;;;;;21.03;8.53;;;15.50;94.90;;;;;;5053900;28;20494;-66
2021/08/14 03:36:32;;;;;;;19.97;7.67;;;15.60;94.90;;;;;;5053291;28;20505;-67
2021/08/14 03:38:58;;;;;;;18.97;9.10;;;15.50;95.00;;;;;;5053920;28;20143;-67
2021/08/14 03:41:24;;;;;;;17.57;7.93;;;15.60;95.00;;;;;;5053967;28;20390;-66
2021/08/14 03:43:49;;;;;;;23.90;7.83;;;15.60;95.10;;;;;;5052748;28;20110;-66
2021/08/14 03:46:15;;;;;;;25.03;10.50;;;15.60;95.10;;;;;;5053577;28;20041;-66
2021/08/14 03:48:41;;;;;;;21.67;8.77;;;15.60;95.10;;;;;;5053362;28;20394;-67
2021/08/14 03:51:06;;;;;;;29.97;9.23;;;15.50;95.10;;;;;;5053118;28;20045;-66
2021/08/14 03:53:32;;;;;;;27.17;8.43;;;15.60;95.10;;;;;;5053660;28;20573;-66
2021/08/14 03:55:58;;;;;;;21.70;8.07;;;15.50;95.10;;;;;;5053576;28;20858;-66
2021/08/14 03:58:24;;;;;;;24.23;8.40;;;15.60;95.20;;;;;;5052689;28;20049;-66
2021/08/14 04:00:49;;;;;;;24.07;9.30;;;15.50;95.20;;;;;;5053166;28;20045;-67
2021/08/14 04:03:15;;;;;;;21.10;9.00;;;15.60;95.20;;;;;;5053364;28;20048;-66
2021/08/14 04:05:40;;;;;;;21.97;8.20;;;15.50;95.20;;;;;;5052781;28;20481;-67
2021/08/14 04:08:06;;;;;;;22.40;8.30;;;15.50;95.30;;;;;;5053775;28;20131;-66
2021/08/14 04:10:32;;;;;;;23.80;8.07;;;15.50;95.30;;;;;;5053086;28;20076;-66
2021/08/14 04:12:58;;;;;;;17.67;8.30;;;15.60;95.30;;;;;;5052295;28;20076;-66
2021/08/14 04:15:24;;;;;;;23.80;8.60;;;15.60;95.30;;;;;;5053258;28;20053;-66
2021/08/14 04:17:50;;;;;;;21.83;7.27;;;15.50;95.30;;;;;;5052750;28;20064;-67
2021/08/14 04:20:15;;;;;;;25.17;8.03;;;15.50;95.30;;;;;;5052560;28;20362;-66
2021/08/14 04:22:41;;;;;;;24.93;8.93;;;15.50;95.30;;;;;;5053095;28;20378;-67
2021/08/14 04:25:08;;;;;;;22.97;8.30;;;15.50;95.40;;;;;;5052383;28;20041;-66
2021/08/14 04:27:33;;;;;;;23.07;8.27;;;15.50;95.40;;;;;;5053159;28;20501;-66
2021/08/14 04:30:03;;;;;;;23.13;8.13;;;15.60;95.40;;;;;;5052747;28;20084;-66
2021/08/14 04:32:36;;;;;;;22.70;7.87;;;15.50;95.40;;;;;;5051960;28;20049;-66
2021/08/14 04:35:07;;;;;;;24.20;8.60;;;15.60;95.50;;;;;;5052489;28;20490;-66
2021/08/14 04:37:33;;;;;;;23.53;8.73;;;15.60;95.50;;;;;;5052905;28;20053;-66
2021/08/14 04:40:00;;;;;;;23.37;8.07;;;15.60;95.50;;;;;;5051923;28;20158;-67
2021/08/14 04:42:26;;;;;;;27.93;8.93;;;15.60;95.50;;;;;;5052750;28;20064;-66
2021/08/14 04:44:51;;;;;;;21.90;8.90;;;15.70;95.60;;;;;;5052340;28;20148;-67
2021/08/14 04:47:17;;;;;;;22.97;8.87;;;15.60;95.60;;;;;;5051626;28;20057;-66
2021/08/14 04:49:43;;;;;;;23.57;7.87;;;15.60;95.60;;;;;;5052218;28;20045;-66
2021/08/14 04:52:08;;;;;;;21.87;8.90;;;15.60;95.60;;;;;;5052507;28;20152;-66
2021/08/14 04:54:34;;;;;;;21.67;8.13;;;15.70;95.60;;;;;;5051711;28;20056;-66
2021/08/14 04:56:59;;;;;;;21.73;9.33;;;15.70;95.70;;;;;;5052110;28;20402;-67
2021/08/14 04:59:25;;;;;;;22.17;8.40;;;15.70;95.70;;;;;;5052110;28;20060;-66
2021/08/14 05:01:51;;;;;;;23.77;7.97;;;15.70;95.70;;;;;;5051426;28;20096;-66
2021/08/14 05:04:16;;;;;;;19.90;8.40;;;15.70;95.70;;;;;;5052023;28;20056;-66
2021/08/14 05:06:42;;;;;;;23.13;8.77;;;15.70;95.70;;;;;;5052020;28;20409;-66
2021/08/14 05:09:08;;;;;;;23.87;8.73;;;15.70;95.70;;;;;;5051638;28;20432;-66
2021/08/14 05:11:33;;;;;;;21.87;8.43;;;15.70;95.70;;;;;;5052268;28;20409;-66
2021/08/14 05:13:59;;;;;;;21.63;8.80;;;15.80;95.80;;;;;;5051847;28;20052;-66
2021/08/14 05:16:25;;;;;;;28.43;8.20;;;15.80;95.80;;;;;;5051572;28;20061;-66
2021/08/14 05:18:51;;;;;;;21.33;8.43;;;15.80;95.70;;;;;;5051653;28;20052;-66
2021/08/14 05:21:17;;;;;;;19.93;8.27;;;15.80;95.70;;;;;;5051530;28;20049;-66
2021/08/14 05:23:43;;;;;;;22.70;9.30;;;15.80;95.80;;;;;;5050938;28;20048;-66
2021/08/14 05:26:08;;;;;;;24.53;8.57;;;15.70;95.80;;;;;;5051949;28;20495;-67
2021/08/14 05:28:34;;;;;;;32.63;9.63;;;15.70;95.80;;;;;;5050960;28;20049;-66
2021/08/14 05:31:00;;;;;;;22.03;9.33;;;15.70;95.80;;;;;;5051282;28;20068;-66
2021/08/14 05:33:25;;;;;;;20.90;8.57;;;15.70;95.80;;;;;;5051978;28;20132;-66
2021/08/14 05:35:51;;;;;;;25.90;9.23;;;15.80;96.00;;;;;;5051570;28;20143;-66
2021/08/14 05:38:17;;;;;;;23.27;9.13;;;15.80;96.00;;;;;;5052018;28;20134;-66
2021/08/14 05:40:46;;;;;;;26.27;9.70;;;15.90;95.90;;;;;;5051690;28;20048;-65
2021/08/14 05:43:11;;;;;;;20.13;8.33;;;16.00;95.80;;;;;;5051176;28;20045;-67
2021/08/14 05:45:37;;;;;;;20.03;9.67;;;16.00;95.70;;;;;;5051664;28;20076;-67
2021/08/14 05:48:04;;;;;;;24.50;8.87;;;16.10;95.80;;;;;;5051156;28;20124;-66
2021/08/14 05:50:30;;;;;;;23.73;9.33;;;16.20;95.80;;;;;;5051008;28;20045;-66
2021/08/14 05:52:56;;;;;;;22.00;9.03;;;16.20;95.70;;;;;;5051172;28;20044;-66
2021/08/14 05:55:22;;;;;;;23.77;9.33;;;16.30;95.70;;;;;;5051965;28;20095;-66
2021/08/14 05:57:49;;;;;;;21.07;8.80;;;16.30;95.60;;;;;;5051117;28;20049;-67
2021/08/14 06:00:15;;;;;;;22.57;9.43;;;16.40;95.50;;;;;;5051650;28;20045;-67
2021/08/14 06:02:41;;;;;;;26.97;8.63;;;16.40;95.50;;;;;;5051255;28;20054;-68
2021/08/14 06:05:08;;;;;;;24.67;10.27;;;16.40;95.50;;;;;;5051030;28;20048;-65
2021/08/14 06:07:39;;;;;;;29.83;8.50;;;16.40;95.50;;;;;;5051361;28;20440;-66
2021/08/14 06:10:07;;;;;;;23.50;9.30;;;16.50;95.50;;;;;;5051559;28;20049;-66
2021/08/14 06:12:33;;;;;;;21.93;8.40;;;16.60;95.90;;;;;;5050668;28;20430;-66
2021/08/14 06:14:58;;;;;;;29.43;10.43;;;16.60;95.50;;;;;;5051463;28;20053;-66
2021/08/14 06:17:24;;;;;;;23.40;9.20;;;16.60;95.40;;;;;;5051158;28;20053;-66
2021/08/14 06:19:50;;;;;;;25.03;9.97;;;16.70;95.40;;;;;;5050419;28;20135;-67
2021/08/14 06:22:15;;;;;;;24.03;9.43;;;16.70;95.40;;;;;;5051519;28;20057;-66
2021/08/14 06:24:41;;;;;;;25.77;9.30;;;16.70;95.40;;;;;;5050406;28;20065;-66
2021/08/14 06:27:07;;;;;;;29.97;10.00;;;16.80;95.40;;;;;;5051321;28;20045;-67
2021/08/14 06:29:38;;;;;;;28.15;9.88;;;16.80;95.40;;;;;;5051287;28;20505;-67
2021/08/14 06:32:04;;;;;;;25.07;9.47;;;16.80;95.30;;;;;;5050548;28;20079;-67
2021/08/14 06:34:30;;;;;;;26.13;9.90;;;16.80;95.30;;;;;;5054414;28;20049;-66
2021/08/14 06:36:55;;;;;;;27.50;9.77;;;16.80;95.30;;;;;;5055211;28;20133;-67
2021/08/14 06:39:21;;;;;;;26.93;9.37;;;16.90;95.40;;;;;;5054621;28;20095;-65
2021/08/14 06:41:48;;;;;;;30.97;9.73;;;16.90;95.40;;;;;;5054635;28;20135;-65
2021/08/14 06:44:13;;;;;;;29.77;10.50;;;17.00;95.40;;;;;;5055286;28;20426;-67
2021/08/14 06:46:39;;;;;;;25.60;10.33;;;17.10;95.40;;;;;;5053917;28;20064;-66
2021/08/14 06:49:04;;;;;;;28.73;11.47;;;17.20;95.30;;;;;;5055036;28;20132;-67
2021/08/14 06:51:30;;;;;;;28.63;10.43;;;17.30;95.20;;;;;;5054945;28;20070;-67
2021/08/14 06:53:58;;;;;;;21.97;9.83;;;17.40;95.10;;;;;;5053878;28;20074;-68
2021/08/14 06:56:24;;;;;;;29.70;10.30;;;17.40;94.90;;;;;;5054746;28;20075;-66
2021/08/14 06:58:49;;;;;;;27.63;9.87;;;17.50;94.80;;;;;;5054721;28;20060;-66
2021/08/14 07:01:15;;;;;;;26.60;9.80;;;17.50;94.80;;;;;;5054103;28;20512;-65
2021/08/14 07:03:41;;;;;;;28.37;10.07;;;17.50;94.80;;;;;;5054250;28;20072;-66
2021/08/14 07:06:06;;;;;;;26.70;11.43;;;17.60;94.80;;;;;;5054644;28;20052;-67
2021/08/14 07:08:32;;;;;;;28.20;9.37;;;17.60;94.80;;;;;;5053746;28;20052;-66
2021/08/14 07:10:58;;;;;;;24.80;9.90;;;17.70;94.80;;;;;;5054608;28;20703;-66
2021/08/14 07:13:23;;;;;;;25.63;9.20;;;17.80;94.80;;;;;;5054819;28;20049;-65
2021/08/14 07:15:50;;;;;;;27.77;10.03;;;17.80;94.80;;;;;;5053537;28;20045;-66
2021/08/14 07:18:15;;;;;;;23.67;9.50;;;18.00;94.80;;;;;;5054310;28;20072;-66
2021/08/14 07:20:41;;;;;;;21.00;9.13;;;18.10;94.50;;;;;;5053860;28;20051;-66
2021/08/14 07:23:07;;;;;;;32.53;10.13;;;18.20;94.40;;;;;;5053758;28;20132;-66
2021/08/14 07:25:32;;;;;;;24.60;9.93;;;18.20;94.40;;;;;;5054025;28;20191;-65
2021/08/14 07:27:58;;;;;;;23.17;9.57;;;18.30;94.20;;;;;;5053373;28;20056;-65
2021/08/14 07:30:24;;;;;;;25.03;8.70;;;18.30;94.10;;;;;;5054026;28;20045;-65
2021/08/14 07:32:50;;;;;;;25.70;8.90;;;18.40;94.10;;;;;;5054066;28;20084;-66
2021/08/14 07:35:15;;;;;;;25.53;9.53;;;18.50;94.00;;;;;;5053290;28;20049;-67
2021/08/14 07:37:50;;;;;;;19.97;8.50;;;18.60;93.90;;;;;;5053947;28;20431;-66
2021/08/14 07:40:23;;;;;;;20.97;7.77;;;18.70;93.70;;;;;;5053989;28;20130;-66
2021/08/14 07:42:49;;;;;;;20.73;8.57;;;18.70;93.60;;;;;;5053338;28;20053;-67
2021/08/14 07:45:17;;;;;;;18.57;7.63;;;18.80;93.30;;;;;;5053155;28;20041;-65
2021/08/14 07:47:48;;;;;;;21.90;8.37;;;18.80;92.90;;;;;;5053515;28;20414;-65
2021/08/14 07:50:27;;;;;;;23.85;8.40;;;18.90;92.90;;;;;;5053205;28;20045;-65
2021/08/14 07:52:54;;;;;;;21.37;8.30;;;18.90;92.70;;;;;;5053462;28;20477;-65
2021/08/14 07:55:21;;;;;;;25.60;7.87;;;19.00;92.60;;;;;;5040773;28;20466;-66
2021/08/14 07:57:47;;;;;;;20.13;8.37;;;19.00;92.50;;;;;;5033066;28;20426;-66
2021/08/14 08:00:15;;;;;;;23.67;8.30;;;19.00;92.50;;;;;;5033561;28;20052;-67
2021/08/14 08:02:42;;;;;;;22.37;8.20;;;19.10;92.30;;;;;;5036105;28;20053;-67
2021/08/14 08:05:09;;;;;;;22.73;8.17;;;19.10;92.20;;;;;;5032630;28;20054;-66
2021/08/14 08:07:37;;;;;;;20.37;7.67;;;19.10;92.30;;;;;;5033612;28;20442;-67
2021/08/14 08:10:06;;;;;;;25.93;8.77;;;19.20;92.30;;;;;;5033132;28;20426;-66
2021/08/14 08:12:31;;;;;;;22.17;7.63;;;19.20;92.20;;;;;;5033452;28;20144;-66
2021/08/14 08:14:57;;;;;;;24.87;7.97;;;19.30;92.30;;;;;;5033093;28;20137;-66
2021/08/14 08:17:22;;;;;;;19.70;7.30;;;19.30;92.20;;;;;;5032152;28;20061;-66
2021/08/14 08:19:49;;;;;;;19.40;7.90;;;19.40;91.90;;;;;;5033233;28;20049;-68
2021/08/14 08:22:14;;;;;;;21.53;7.60;;;19.40;91.70;;;;;;5031235;28;20041;-66
2021/08/14 08:24:40;;;;;;;18.80;6.93;;;19.40;91.50;;;;;;5030210;28;20072;-66
2021/08/14 08:27:06;;;;;;;19.73;7.30;;;19.50;91.50;;;;;;5031105;28;20049;-66
2021/08/14 08:29:31;;;;;;;22.30;7.57;;;19.50;91.40;;;;;;5031253;28;20041;-66
2021/08/14 08:31:57;;;;;;;16.67;6.63;;;19.60;91.10;;;;;;5030070;28;20053;-66
2021/08/14 08:34:24;;;;;;;20.23;7.50;;;19.60;91.00;;;;;;5031457;28;20041;-67
2021/08/14 08:36:51;;;;;;;21.37;6.60;;;19.70;91.00;;;;;;5031931;28;20491;-66
2021/08/14 08:39:16;;;;;;;17.03;6.73;;;19.70;91.20;;;;;;5032220;28;20067;-66
2021/08/14 08:41:42;;;;;;;20.80;6.33;;;19.70;90.50;;;;;;5032470;28;20084;-66
2021/08/14 08:44:08;;;;;;;23.53;7.60;;;19.80;90.30;;;;;;5032623;28;20053;-66
2021/08/14 08:46:35;;;;;;;20.67;5.93;;;19.90;89.70;;;;;;5031920;28;20053;-66
2021/08/14 08:49:03;;;;;;;23.00;6.20;;;20.00;89.50;;;;;;5032172;28;20402;-66
2021/08/14 08:51:32;;;;;;;12.60;5.60;;;20.20;89.00;;;;;;5032789;28;20099;-66
2021/08/14 08:53:59;;;;;;;16.10;5.40;;;20.20;87.80;;;;;;5031545;28;20041;-66
2021/08/14 08:56:25;;;;;;;15.07;5.27;;;20.40;88.10;;;;;;5031816;28;20099;-67
2021/08/14 08:58:51;;;;;;;20.55;6.43;;;20.70;87.90;;;;;;5032037;28;20175;-66
2021/08/14 09:01:16;;;;;;;16.42;5.47;;;20.80;86.90;;;;;;5032018;28;20144;-66
2021/08/14 09:03:42;;;;;;;16.95;5.78;;;21.10;86.40;;;;;;5032338;28;20132;-67
2021/08/14 09:06:08;;;;;;;14.13;5.85;;;21.20;85.40;;;;;;5032498;28;20073;-66
2021/08/14 09:08:33;;;;;;;14.25;5.50;;;21.20;84.70;;;;;;5031488;28;20530;-66
2021/08/14 09:11:06;;;;;;;19.13;5.55;;;21.20;84.10;;;;;;5031968;28;20406;-67
2021/08/14 09:13:32;;;;;;;17.17;5.80;;;21.20;83.40;;;;;;5031210;28;20057;-66
2021/08/14 09:16:17;;;;;;;18.40;6.03;;;21.20;83.30;;;;;;5031735;28;20049;-66
2021/08/14 09:18:57;;;;;;;18.20;5.53;;;21.10;83.10;;;;;;5031915;28;20147;-65
2021/08/14 09:21:37;;;;;;;16.40;5.97;;;21.10;83.10;;;;;;5031299;28;20379;-66
2021/08/14 09:24:05;;;;;;;16.23;5.57;;;21.00;82.00;;;;;;5031867;28;20307;-67
2021/08/14 09:26:46;;;;;;;16.50;5.25;;;20.90;82.70;;;;;;5032069;28;20050;-66
2021/08/14 09:29:12;;;;;;;17.02;6.32;;;20.80;82.60;;;;;;5031226;28;20140;-66
2021/08/14 09:31:48;;;;;;;16.60;5.47;;;20.80;83.50;;;;;;5031733;28;20419;-65
2021/08/14 09:34:19;;;;;;;12.85;5.53;;;20.80;83.80;;;;;;5031909;28;20049;-66
2021/08/14 09:37:01;;;;;;;15.35;5.97;;;20.80;83.70;;;;;;5030804;28;20391;-67
2021/08/14 09:39:28;;;;;;;15.55;6.15;;;20.90;83.60;;;;;;5031978;28;20045;-66
2021/08/14 09:42:09;;;;;;;14.68;5.43;;;21.10;83.20;;;;;;5031127;28;20484;-68
2021/08/14 09:44:36;;;;;;;16.95;6.50;;;21.10;82.00;;;;;;5031861;28;20061;-67
2021/08/14 09:47:10;;;;;;;15.70;5.53;;;21.10;82.50;;;;;;5031185;28;20046;-68
2021/08/14 09:49:52;;;;;;;14.85;5.22;;;21.10;81.20;;;;;;5031302;28;20447;-66
2021/08/14 09:52:20;;;;;;;10.65;4.95;;;21.00;80.90;;;;;;5031766;28;20211;-66
2021/08/14 09:54:45;;;;;;;15.15;5.07;;;21.00;81.40;;;;;;5031284;28;20054;-69
2021/08/14 09:57:16;;;;;;;16.35;5.65;;;20.90;81.40;;;;;;5030755;28;20068;-68
2021/08/14 09:59:45;;;;;;;15.10;5.47;;;20.90;81.10;;;;;;5031269;28;20049;-68
2021/08/14 10:02:23;;;;;;;16.75;5.38;;;20.90;80.50;;;;;;5031286;28;20552;-67
2021/08/14 10:04:50;;;;;;;13.52;5.10;;;20.90;80.50;;;;;;5030642;28;20049;-67
2021/08/14 10:07:16;;;;;;;13.80;5.50;;;21.00;80.40;;;;;;5031557;28;20050;-67
2021/08/14 10:09:43;;;;;;;19.35;6.00;;;21.00;79.90;;;;;;5029782;28;20052;-68
2021/08/14 10:12:11;;;;;;;13.25;5.30;;;21.00;79.80;;;;;;5031105;28;20440;-68
2021/08/14 10:14:38;;;;;;;15.90;5.47;;;21.10;80.10;;;;;;5031454;28;20399;-67
2021/08/14 10:17:06;;;;;;;15.63;5.00;;;21.20;79.80;;;;;;5030632;28;20581;-67
2021/08/14 10:19:31;;;;;;;14.35;5.43;;;21.20;79.70;;;;;;5031338;28;20050;-67
2021/08/14 10:21:57;;;;;;;14.35;4.95;;;21.20;80.10;;;;;;5030869;28;20049;-68
2021/08/14 10:24:23;;;;;;;13.93;4.95;;;21.30;80.10;;;;;;5030343;28;20049;-67
2021/08/14 10:27:01;;;;;;;17.92;5.70;;;21.40;80.10;;;;;;5030382;28;20050;-65
2021/08/14 10:30:03;;;;;;;16.05;5.10;;;21.50;79.50;;;;;;5031329;28;20418;-65
2021/08/14 10:32:31;;;;;;;15.18;5.63;;;21.70;78.40;;;;;;4989069;28;20055;-67
2021/08/14 10:35:14;;;;;;;19.52;5.22;;;21.70;78.60;;;;;;5022551;28;20062;-65
2021/08/14 10:37:48;;;;;;;18.98;6.57;;;21.70;78.60;;;;;;5031236;28;20046;-65
2021/08/14 10:40:15;;;;;;;13.77;5.75;;;21.70;79.50;;;;;;5030592;28;20042;-65
2021/08/14 10:42:48;;;;;;;20.25;7.07;;;21.80;79.20;;;;;;5030332;28;20130;-65
2021/08/14 10:45:15;;;;;;;17.70;6.22;;;21.80;79.00;;;;;;5029644;28;20375;-65
2021/08/14 10:47:44;;;;;;;18.13;6.18;;;21.80;78.70;;;;;;5030215;28;20056;-67
2021/08/14 10:50:32;;;;;;;16.95;5.75;;;21.70;78.30;;;;;;5030557;28;20490;-66
2021/08/14 10:53:10;;;;;;;16.98;6.75;;;21.70;78.70;;;;;;5029392;28;20085;-66
2021/08/14 10:55:47;;;;;;;15.20;5.65;;;21.90;78.30;;;;;;5030639;28;20513;-66
2021/08/14 10:58:24;;;;;;;13.45;5.57;;;22.10;78.10;;;;;;5030825;28;20449;-66
2021/08/14 11:01:15;;;;;;;15.85;6.40;;;22.40;75.90;;;;;;5029857;28;20047;-65
2021/08/14 11:03:41;;;;;;;17.88;6.53;;;22.50;75.40;;;;;;5030602;28;20045;-67
2021/08/14 11:06:26;;;;;;;19.20;7.13;;;22.60;74.70;;;;;;5029943;28;20489;-66
2021/08/14 11:09:18;;;;;;;18.25;6.18;;;22.60;73.80;;;;;;5030682;28;20080;-66
2021/08/14 11:11:56;;;;;;;17.30;6.00;;;22.70;74.40;;;;;;5027337;28;20045;-66
2021/08/14 11:14:41;;;;;;;15.52;7.03;;;22.80;73.20;;;;;;5029947;28;20068;-66
2021/08/14 11:17:07;;;;;;;19.15;6.78;;;22.80;73.30;;;;;;5030553;28;20049;-66
2021/08/14 11:19:47;;;;;;;19.65;6.70;;;22.70;73.80;;;;;;5030361;28;20061;-67
2021/08/14 11:22:17;;;;;;;20.38;7.22;;;22.60;73.10;;;;;;5033552;28;20056;-66
2021/08/14 11:24:44;;;;;;;19.23;8.10;;;22.50;73.60;;;;;;5034268;28;20052;-68
2021/08/14 11:27:52;;;;;;;21.40;7.75;;;22.50;73.80;;;;;;5033520;28;20054;-65
2021/08/14 11:30:22;;;;;;;20.30;7.70;;;22.30;73.50;;;;;;5023739;28;20328;-66
2021/08/14 11:32:48;;;;;;;21.48;7.47;;;22.10;74.70;;;;;;5033688;28;20080;-66
2021/08/14 11:35:20;;;;;;;17.55;7.57;;;22.00;75.30;;;;;;5033407;28;20046;-66
2021/08/14 11:38:09;;;;;;;14.75;6.05;;;21.80;75.60;;;;;;5033353;28;20053;-66
2021/08/14 11:40:40;;;;;;;18.00;6.55;;;21.60;75.70;;;;;;5034113;28;20054;-66
2021/08/14 11:43:14;;;;;;;14.65;6.45;;;21.50;76.90;;;;;;5033132;28;20469;-66
2021/08/14 11:45:43;;;;;;;17.38;6.47;;;21.70;77.10;;;;;;5033182;28;20053;-67
2021/08/14 11:48:11;;;;;;;18.27;5.82;;;21.80;75.80;;;;;;5032960;28;20517;-66
2021/08/14 11:50:43;;;;;;;14.50;5.95;;;22.00;75.50;;;;;;5033983;28;20151;-66
2021/08/14 11:53:12;;;;;;;16.15;5.72;;;22.20;75.10;;;;;;5034009;28;20498;-66
2021/08/14 11:55:38;;;;;;;13.38;5.53;;;22.40;73.60;;;;;;5033148;28;20045;-66
2021/08/14 11:58:04;;;;;;;12.35;5.57;;;22.50;72.60;;;;;;5033702;28;20045;-66
2021/08/14 12:00:31;;;;;;;16.92;5.82;;;22.70;71.80;;;;;;5033456;28;20073;-66
2021/08/14 12:03:16;;;;;;;11.50;5.13;;;22.80;71.60;;;;;;5032391;28;20045;-67
2021/08/14 12:05:46;;;;;;;10.98;4.50;;;23.00;70.60;;;;;;5033415;28;20387;-66
2021/08/14 12:08:34;;;;;;;14.32;4.50;;;23.10;69.30;;;;;;5033603;28;20418;-66
2021/08/14 12:11:01;;;;;;;12.57;4.43;;;23.20;68.40;;;;;;5032522;28;20084;-66
2021/08/14 12:13:28;;;;;;;12.98;4.70;;;23.30;68.20;;;;;;5033390;28;20061;-66
2021/08/14 12:16:12;;;;;;;11.45;4.38;;;23.40;67.70;;;;;;5032863;28;20388;-66
2021/08/14 12:18:39;;;;;;;12.07;4.85;;;23.50;66.80;;;;;;5031838;28;20063;-67
2021/08/14 12:21:06;;;;;;;13.52;3.92;;;23.60;66.70;;;;;;5033101;28;20049;-67
2021/08/14 12:23:34;;;;;;;10.82;4.25;;;23.60;66.00;;;;;;5032372;28;20054;-66
2021/08/14 12:26:02;;;;;;;13.13;4.78;;;23.50;66.20;;;;;;5032434;28;20083;-66
2021/08/14 12:28:33;;;;;;;13.23;4.28;;;23.60;66.00;;;;;;5032594;28;20057;-66
2021/08/14 12:31:12;;;;;;;12.23;4.82;;;23.60;65.50;;;;;;5031721;28;20062;-67
2021/08/14 12:33:54;;;;;;;11.18;4.30;;;23.50;64.90;;;;;;5032439;28;20050;-66
2021/08/14 12:36:40;;;;;;;10.52;4.25;;;23.30;64.30;;;;;;5032660;28;20662;-67
2021/08/14 12:39:08;;;;;;;11.00;4.05;;;23.10;64.20;;;;;;5032507;28;20053;-67
2021/08/14 12:41:38;;;;;;;11.15;3.85;;;22.90;65.50;;;;;;5033129;28;20099;-69